sensor_id;sensor_type;location;lat;lon;timestamp;temperature;humidity
24410;DHT22;12543;53.364;-1.504;2022-10-26T00:00:40;13.10;99.90
24410;DHT22;12543;53.364;-1.504;2022-10-26T00:03:07;13.10;99.90
24410;DHT22;12543;53.364;-1.504;2022-10-26T00:05:34;13.10;99.90
24410;DHT22;12543;53.364;-1.504;2022-10-26T00:08:01;13.10;99.90
24410;DHT22;12543;53.364;-1.504;2022-10-26T00:10:28;13.10;99.90
24410;DHT22;12543;53.364;-1.504;2022-10-26T00:12:57;13.10;99.90
24410;DHT22;12543;53.364;-1.504;2022-10-26T00:15:24;13.00;99.90
24410;DHT22;12543;53.364;-1.504;2022-10-26T00:17:51;13.00;99.90
24410;DHT22;12543;53.364;-1.504;2022-10-26T00:20:17;13.00;99.90
24410;DHT22;12543;53.364;-1.504;2022-10-26T00:22:44;13.00;99.90
24410;DHT22;12543;53.364;-1.504;2022-10-26T00:25:11;13.00;99.90
24410;DHT22;12543;53.364;-1.504;2022-10-26T00:27:38;13.00;99.90
24410;DHT22;12543;53.364;-1.504;2022-10-26T00:30:05;13.00;99.90
24410;DHT22;12543;53.364;-1.504;2022-10-26T00:32:33;13.10;99.90
24410;DHT22;12543;53.364;-1.504;2022-10-26T00:34:59;13.10;99.90
24410;DHT22;12543;53.364;-1.504;2022-10-26T00:37:46;13.00;99.90
24410;DHT22;12543;53.364;-1.504;2022-10-26T00:40:14;13.00;99.90
24410;DHT22;12543;53.364;-1.504;2022-10-26T00:42:40;13.10;99.90
24410;DHT22;12543;53.364;-1.504;2022-10-26T00:45:19;13.00;99.90
24410;DHT22;12543;53.364;-1.504;2022-10-26T00:47:48;13.10;99.90
24410;DHT22;12543;53.364;-1.504;2022-10-26T00:50:20;13.10;99.90
24410;DHT22;12543;53.364;-1.504;2022-10-26T00:52:48;13.00;99.90
24410;DHT22;12543;53.364;-1.504;2022-10-26T00:55:16;13.10;99.90
24410;DHT22;12543;53.364;-1.504;2022-10-26T00:57:47;13.10;99.90
24410;DHT22;12543;53.364;-1.504;2022-10-26T01:00:15;13.10;99.90
24410;DHT22;12543;53.364;-1.504;2022-10-26T01:02:42;13.10;99.90
24410;DHT22;12543;53.364;-1.504;2022-10-26T01:05:10;13.10;99.90
24410;DHT22;12543;53.364;-1.504;2022-10-26T01:07:37;13.00;99.90
24410;DHT22;12543;53.364;-1.504;2022-10-26T01:10:05;13.10;99.90
24410;DHT22;12543;53.364;-1.504;2022-10-26T01:12:32;13.00;99.90
24410;DHT22;12543;53.364;-1.504;2022-10-26T01:14:59;13.10;99.90
24410;DHT22;12543;53.364;-1.504;2022-10-26T01:17:33;13.10;99.90
24410;DHT22;12543;53.364;-1.504;2022-10-26T01:22:50;13.10;99.90
24410;DHT22;12543;53.364;-1.504;2022-10-26T01:25:45;13.10;99.90
24410;DHT22;12543;53.364;-1.504;2022-10-26T01:28:51;13.10;99.90
24410;DHT22;12543;53.364;-1.504;2022-10-26T01:30:57;13.10;99.90
24410;DHT22;12543;53.364;-1.504;2022-10-26T01:33:31;13.10;99.90
24410;DHT22;12543;53.364;-1.504;2022-10-26T01:38:50;13.10;99.90
24410;DHT22;12543;53.364;-1.504;2022-10-26T01:41:20;13.10;99.90
24410;DHT22;12543;53.364;-1.504;2022-10-26T01:43:51;13.10;99.90
24410;DHT22;12543;53.364;-1.504;2022-10-26T01:46:20;13.10;99.90
24410;DHT22;12543;53.364;-1.504;2022-10-26T01:48:48;13.10;99.90
24410;DHT22;12543;53.364;-1.504;2022-10-26T01:51:16;13.10;99.90
24410;DHT22;12543;53.364;-1.504;2022-10-26T01:53:43;13.20;99.90
24410;DHT22;12543;53.364;-1.504;2022-10-26T01:56:13;13.10;99.90
24410;DHT22;12543;53.364;-1.504;2022-10-26T01:58:49;13.20;99.90
24410;DHT22;12543;53.364;-1.504;2022-10-26T02:04:25;13.20;99.90
24410;DHT22;12543;53.364;-1.504;2022-10-26T02:09:41;13.20;99.90
24410;DHT22;12543;53.364;-1.504;2022-10-26T02:12:13;13.20;99.90
24410;DHT22;12543;53.364;-1.504;2022-10-26T02:14:50;13.20;99.90
24410;DHT22;12543;53.364;-1.504;2022-10-26T02:20:00;13.30;99.90
24410;DHT22;12543;53.364;-1.504;2022-10-26T02:22:31;13.20;99.90
24410;DHT22;12543;53.364;-1.504;2022-10-26T02:25:00;13.20;99.90
24410;DHT22;12543;53.364;-1.504;2022-10-26T02:27:30;13.30;99.90
24410;DHT22;12543;53.364;-1.504;2022-10-26T02:29:58;13.30;99.90
24410;DHT22;12543;53.364;-1.504;2022-10-26T02:32:26;13.30;99.90
24410;DHT22;12543;53.364;-1.504;2022-10-26T02:34:55;13.30;99.90
24410;DHT22;12543;53.364;-1.504;2022-10-26T02:37:23;13.30;99.90
24410;DHT22;12543;53.364;-1.504;2022-10-26T02:39:51;13.30;99.90
24410;DHT22;12543;53.364;-1.504;2022-10-26T02:42:18;13.30;99.90
24410;DHT22;12543;53.364;-1.504;2022-10-26T02:44:47;13.30;99.90
24410;DHT22;12543;53.364;-1.504;2022-10-26T02:47:15;13.30;99.90
24410;DHT22;12543;53.364;-1.504;2022-10-26T02:49:43;13.30;99.90
24410;DHT22;12543;53.364;-1.504;2022-10-26T02:54:48;13.40;99.90
24410;DHT22;12543;53.364;-1.504;2022-10-26T02:57:17;13.40;99.90
24410;DHT22;12543;53.364;-1.504;2022-10-26T02:59:45;13.30;99.90
24410;DHT22;12543;53.364;-1.504;2022-10-26T03:02:16;13.40;99.90
24410;DHT22;12543;53.364;-1.504;2022-10-26T03:04:44;13.40;99.90
24410;DHT22;12543;53.364;-1.504;2022-10-26T03:07:11;13.40;99.90
24410;DHT22;12543;53.364;-1.504;2022-10-26T03:09:38;13.40;99.90
24410;DHT22;12543;53.364;-1.504;2022-10-26T03:12:05;13.40;99.90
24410;DHT22;12543;53.364;-1.504;2022-10-26T03:14:32;13.40;99.90
24410;DHT22;12543;53.364;-1.504;2022-10-26T03:16:59;13.40;99.90
24410;DHT22;12543;53.364;-1.504;2022-10-26T03:19:26;13.40;99.90
24410;DHT22;12543;53.364;-1.504;2022-10-26T03:21:53;13.40;99.90
24410;DHT22;12543;53.364;-1.504;2022-10-26T03:24:19;13.40;99.90
24410;DHT22;12543;53.364;-1.504;2022-10-26T03:26:46;13.50;99.90
24410;DHT22;12543;53.364;-1.504;2022-10-26T03:29:13;13.50;99.90
24410;DHT22;12543;53.364;-1.504;2022-10-26T03:31:40;13.50;99.90
24410;DHT22;12543;53.364;-1.504;2022-10-26T03:34:07;13.50;99.90
24410;DHT22;12543;53.364;-1.504;2022-10-26T03:36:34;13.50;99.90
24410;DHT22;12543;53.364;-1.504;2022-10-26T03:39:01;13.50;99.90
24410;DHT22;12543;53.364;-1.504;2022-10-26T03:41:28;13.50;99.90
24410;DHT22;12543;53.364;-1.504;2022-10-26T03:43:55;13.50;99.90
24410;DHT22;12543;53.364;-1.504;2022-10-26T03:46:22;13.60;99.90
24410;DHT22;12543;53.364;-1.504;2022-10-26T03:48:50;13.60;99.90
24410;DHT22;12543;53.364;-1.504;2022-10-26T03:51:17;13.50;99.90
24410;DHT22;12543;53.364;-1.504;2022-10-26T03:53:47;13.50;99.90
24410;DHT22;12543;53.364;-1.504;2022-10-26T03:56:16;13.60;99.90
24410;DHT22;12543;53.364;-1.504;2022-10-26T03:58:43;13.60;99.90
24410;DHT22;12543;53.364;-1.504;2022-10-26T04:01:10;13.60;99.90
24410;DHT22;12543;53.364;-1.504;2022-10-26T04:03:37;13.60;99.90
24410;DHT22;12543;53.364;-1.504;2022-10-26T04:06:04;13.60;99.90
24410;DHT22;12543;53.364;-1.504;2022-10-26T04:08:31;13.60;99.90
24410;DHT22;12543;53.364;-1.504;2022-10-26T04:10:58;13.60;99.90
24410;DHT22;12543;53.364;-1.504;2022-10-26T04:13:30;13.70;99.90
24410;DHT22;12543;53.364;-1.504;2022-10-26T04:15:57;13.60;99.90
24410;DHT22;12543;53.364;-1.504;2022-10-26T04:18:24;13.70;99.90
24410;DHT22;12543;53.364;-1.504;2022-10-26T04:20:51;13.60;99.90
24410;DHT22;12543;53.364;-1.504;2022-10-26T04:23:18;13.70;99.90
24410;DHT22;12543;53.364;-1.504;2022-10-26T04:25:45;13.70;99.90
24410;DHT22;12543;53.364;-1.504;2022-10-26T04:28:12;13.70;99.90
24410;DHT22;12543;53.364;-1.504;2022-10-26T04:30:39;13.70;99.90
24410;DHT22;12543;53.364;-1.504;2022-10-26T04:33:06;13.70;99.90
24410;DHT22;12543;53.364;-1.504;2022-10-26T04:35:33;13.70;99.90
24410;DHT22;12543;53.364;-1.504;2022-10-26T04:38:01;13.70;99.90
24410;DHT22;12543;53.364;-1.504;2022-10-26T04:40:29;13.70;99.90
24410;DHT22;12543;53.364;-1.504;2022-10-26T04:42:57;13.70;99.90
24410;DHT22;12543;53.364;-1.504;2022-10-26T04:45:24;13.80;99.90
24410;DHT22;12543;53.364;-1.504;2022-10-26T04:50:26;13.80;99.90
24410;DHT22;12543;53.364;-1.504;2022-10-26T04:52:54;13.80;99.90
24410;DHT22;12543;53.364;-1.504;2022-10-26T04:55:21;13.80;99.90
24410;DHT22;12543;53.364;-1.504;2022-10-26T04:57:49;13.80;99.90
24410;DHT22;12543;53.364;-1.504;2022-10-26T05:00:17;13.80;99.90
24410;DHT22;12543;53.364;-1.504;2022-10-26T05:02:43;13.80;99.90
24410;DHT22;12543;53.364;-1.504;2022-10-26T05:05:11;13.80;99.90
24410;DHT22;12543;53.364;-1.504;2022-10-26T05:07:40;13.80;99.90
24410;DHT22;12543;53.364;-1.504;2022-10-26T05:10:07;13.80;99.90
24410;DHT22;12543;53.364;-1.504;2022-10-26T05:12:34;13.80;99.90
24410;DHT22;12543;53.364;-1.504;2022-10-26T05:15:01;13.80;99.90
24410;DHT22;12543;53.364;-1.504;2022-10-26T05:17:33;13.80;99.90
24410;DHT22;12543;53.364;-1.504;2022-10-26T05:20:00;13.80;99.90
24410;DHT22;12543;53.364;-1.504;2022-10-26T05:22:31;13.90;99.90
24410;DHT22;12543;53.364;-1.504;2022-10-26T05:24:58;13.90;99.90
24410;DHT22;12543;53.364;-1.504;2022-10-26T05:27:25;13.90;99.90
24410;DHT22;12543;53.364;-1.504;2022-10-26T05:29:52;13.90;99.90
24410;DHT22;12543;53.364;-1.504;2022-10-26T05:32:18;13.90;99.90
24410;DHT22;12543;53.364;-1.504;2022-10-26T05:34:45;13.90;99.90
24410;DHT22;12543;53.364;-1.504;2022-10-26T05:37:12;13.90;99.90
24410;DHT22;12543;53.364;-1.504;2022-10-26T05:39:39;13.90;99.90
24410;DHT22;12543;53.364;-1.504;2022-10-26T05:42:06;14.00;99.90
24410;DHT22;12543;53.364;-1.504;2022-10-26T05:44:33;14.00;99.90
24410;DHT22;12543;53.364;-1.504;2022-10-26T05:47:00;14.00;99.90
24410;DHT22;12543;53.364;-1.504;2022-10-26T05:49:27;14.00;99.90
24410;DHT22;12543;53.364;-1.504;2022-10-26T05:51:54;14.00;99.90
24410;DHT22;12543;53.364;-1.504;2022-10-26T05:54:21;14.00;99.90
24410;DHT22;12543;53.364;-1.504;2022-10-26T05:56:48;14.00;99.90
24410;DHT22;12543;53.364;-1.504;2022-10-26T05:59:15;14.00;99.90
24410;DHT22;12543;53.364;-1.504;2022-10-26T06:06:54;14.00;99.90
24410;DHT22;12543;53.364;-1.504;2022-10-26T06:09:22;14.00;99.90
24410;DHT22;12543;53.364;-1.504;2022-10-26T06:11:49;14.00;99.90
24410;DHT22;12543;53.364;-1.504;2022-10-26T06:14:21;14.00;99.90
24410;DHT22;12543;53.364;-1.504;2022-10-26T06:20:08;14.00;99.90
24410;DHT22;12543;53.364;-1.504;2022-10-26T06:22:53;13.90;99.90
24410;DHT22;12543;53.364;-1.504;2022-10-26T06:25:39;14.00;99.90
24410;DHT22;12543;53.364;-1.504;2022-10-26T06:28:15;13.90;99.90
24410;DHT22;12543;53.364;-1.504;2022-10-26T06:30:44;13.90;99.90
24410;DHT22;12543;53.364;-1.504;2022-10-26T06:33:11;13.90;99.90
24410;DHT22;12543;53.364;-1.504;2022-10-26T06:36:11;13.90;99.90
24410;DHT22;12543;53.364;-1.504;2022-10-26T06:38:42;13.90;99.90
24410;DHT22;12543;53.364;-1.504;2022-10-26T06:41:10;13.90;99.90
24410;DHT22;12543;53.364;-1.504;2022-10-26T06:43:40;13.90;99.90
24410;DHT22;12543;53.364;-1.504;2022-10-26T06:48:39;13.80;99.90
24410;DHT22;12543;53.364;-1.504;2022-10-26T06:51:10;13.80;99.90
24410;DHT22;12543;53.364;-1.504;2022-10-26T06:53:41;13.80;99.90
24410;DHT22;12543;53.364;-1.504;2022-10-26T06:56:09;13.80;99.90
24410;DHT22;12543;53.364;-1.504;2022-10-26T06:58:37;13.80;99.90
24410;DHT22;12543;53.364;-1.504;2022-10-26T07:01:04;13.80;99.90
24410;DHT22;12543;53.364;-1.504;2022-10-26T07:03:31;13.80;99.90
24410;DHT22;12543;53.364;-1.504;2022-10-26T07:05:58;13.70;99.90
24410;DHT22;12543;53.364;-1.504;2022-10-26T07:08:25;13.70;99.90
24410;DHT22;12543;53.364;-1.504;2022-10-26T07:10:52;13.70;99.90
24410;DHT22;12543;53.364;-1.504;2022-10-26T07:13:19;13.70;99.90
24410;DHT22;12543;53.364;-1.504;2022-10-26T07:15:46;13.70;99.90
24410;DHT22;12543;53.364;-1.504;2022-10-26T07:18:13;13.60;99.90
24410;DHT22;12543;53.364;-1.504;2022-10-26T07:20:40;13.60;99.90
24410;DHT22;12543;53.364;-1.504;2022-10-26T07:23:08;13.70;99.90
24410;DHT22;12543;53.364;-1.504;2022-10-26T07:25:38;13.60;99.90
24410;DHT22;12543;53.364;-1.504;2022-10-26T07:28:07;13.60;99.90
24410;DHT22;12543;53.364;-1.504;2022-10-26T07:30:36;13.60;99.90
24410;DHT22;12543;53.364;-1.504;2022-10-26T07:33:13;13.60;99.90
24410;DHT22;12543;53.364;-1.504;2022-10-26T07:35:40;13.70;99.90
24410;DHT22;12543;53.364;-1.504;2022-10-26T07:38:11;13.70;99.90
24410;DHT22;12543;53.364;-1.504;2022-10-26T07:40:38;13.70;99.90
24410;DHT22;12543;53.364;-1.504;2022-10-26T07:43:04;13.70;99.90
24410;DHT22;12543;53.364;-1.504;2022-10-26T07:45:32;13.70;99.90
24410;DHT22;12543;53.364;-1.504;2022-10-26T07:47:59;13.70;99.90
24410;DHT22;12543;53.364;-1.504;2022-10-26T07:50:26;13.70;99.90
24410;DHT22;12543;53.364;-1.504;2022-10-26T07:52:52;13.80;99.90
24410;DHT22;12543;53.364;-1.504;2022-10-26T07:55:20;13.80;99.90
24410;DHT22;12543;53.364;-1.504;2022-10-26T07:57:46;13.80;99.90
24410;DHT22;12543;53.364;-1.504;2022-10-26T08:00:20;13.80;99.90
24410;DHT22;12543;53.364;-1.504;2022-10-26T08:02:47;13.80;99.90
24410;DHT22;12543;53.364;-1.504;2022-10-26T08:05:14;13.80;99.90
24410;DHT22;12543;53.364;-1.504;2022-10-26T08:07:41;13.80;99.90
24410;DHT22;12543;53.364;-1.504;2022-10-26T08:10:08;13.90;99.90
24410;DHT22;12543;53.364;-1.504;2022-10-26T08:12:35;13.80;99.90
24410;DHT22;12543;53.364;-1.504;2022-10-26T08:15:02;13.90;99.90
24410;DHT22;12543;53.364;-1.504;2022-10-26T08:17:29;13.90;99.90
24410;DHT22;12543;53.364;-1.504;2022-10-26T08:19:57;13.90;99.90
24410;DHT22;12543;53.364;-1.504;2022-10-26T08:22:24;13.90;99.90
24410;DHT22;12543;53.364;-1.504;2022-10-26T08:24:51;14.00;99.90
24410;DHT22;12543;53.364;-1.504;2022-10-26T08:27:18;13.90;99.90
24410;DHT22;12543;53.364;-1.504;2022-10-26T08:29:45;14.00;99.90
24410;DHT22;12543;53.364;-1.504;2022-10-26T08:32:12;13.90;99.90
24410;DHT22;12543;53.364;-1.504;2022-10-26T08:34:38;14.00;99.90
24410;DHT22;12543;53.364;-1.504;2022-10-26T08:37:05;14.00;99.90
24410;DHT22;12543;53.364;-1.504;2022-10-26T08:39:32;14.00;99.90
24410;DHT22;12543;53.364;-1.504;2022-10-26T08:42:02;14.00;99.90
24410;DHT22;12543;53.364;-1.504;2022-10-26T08:44:31;14.00;99.90
24410;DHT22;12543;53.364;-1.504;2022-10-26T08:47:20;14.00;99.90
24410;DHT22;12543;53.364;-1.504;2022-10-26T08:49:53;14.00;99.90
24410;DHT22;12543;53.364;-1.504;2022-10-26T08:52:25;14.00;99.90
24410;DHT22;12543;53.364;-1.504;2022-10-26T08:54:56;14.00;99.90
24410;DHT22;12543;53.364;-1.504;2022-10-26T08:57:29;14.00;99.90
24410;DHT22;12543;53.364;-1.504;2022-10-26T09:00:04;14.10;99.90
24410;DHT22;12543;53.364;-1.504;2022-10-26T09:02:31;14.10;99.90
24410;DHT22;12543;53.364;-1.504;2022-10-26T09:04:58;14.10;99.90
24410;DHT22;12543;53.364;-1.504;2022-10-26T09:07:37;14.10;99.90
24410;DHT22;12543;53.364;-1.504;2022-10-26T09:15:40;14.20;99.90
24410;DHT22;12543;53.364;-1.504;2022-10-26T09:25:57;14.30;99.90
24410;DHT22;12543;53.364;-1.504;2022-10-26T09:28:24;14.40;99.90
24410;DHT22;12543;53.364;-1.504;2022-10-26T09:33:38;14.50;99.90
24410;DHT22;12543;53.364;-1.504;2022-10-26T09:36:07;14.60;99.90
24410;DHT22;12543;53.364;-1.504;2022-10-26T09:43:42;14.80;99.90
24410;DHT22;12543;53.364;-1.504;2022-10-26T09:46:12;14.90;99.90
24410;DHT22;12543;53.364;-1.504;2022-10-26T09:48:41;14.90;99.90
24410;DHT22;12543;53.364;-1.504;2022-10-26T09:51:09;14.90;99.90
24410;DHT22;12543;53.364;-1.504;2022-10-26T09:53:36;15.00;99.90
24410;DHT22;12543;53.364;-1.504;2022-10-26T09:56:08;15.00;99.90
24410;DHT22;12543;53.364;-1.504;2022-10-26T09:58:41;15.00;99.90
24410;DHT22;12543;53.364;-1.504;2022-10-26T10:06:42;15.00;99.90
24410;DHT22;12543;53.364;-1.504;2022-10-26T10:11:38;15.10;99.90
24410;DHT22;12543;53.364;-1.504;2022-10-26T10:14:06;15.20;99.90
24410;DHT22;12543;53.364;-1.504;2022-10-26T10:16:34;15.30;99.90
24410;DHT22;12543;53.364;-1.504;2022-10-26T10:19:01;15.40;99.90
24410;DHT22;12543;53.364;-1.504;2022-10-26T10:21:38;15.40;99.90
24410;DHT22;12543;53.364;-1.504;2022-10-26T10:29:40;15.40;99.90
24410;DHT22;12543;53.364;-1.504;2022-10-26T10:32:13;15.50;99.90
24410;DHT22;12543;53.364;-1.504;2022-10-26T10:34:42;15.70;99.90
24410;DHT22;12543;53.364;-1.504;2022-10-26T10:37:21;16.00;99.90
24410;DHT22;12543;53.364;-1.504;2022-10-26T10:39:49;16.40;99.90
24410;DHT22;12543;53.364;-1.504;2022-10-26T10:42:19;16.80;99.90
24410;DHT22;12543;53.364;-1.504;2022-10-26T10:44:46;17.10;99.90
24410;DHT22;12543;53.364;-1.504;2022-10-26T10:47:33;17.40;99.90
24410;DHT22;12543;53.364;-1.504;2022-10-26T10:52:39;17.70;99.90
24410;DHT22;12543;53.364;-1.504;2022-10-26T10:55:14;17.80;99.90
24410;DHT22;12543;53.364;-1.504;2022-10-26T11:00:08;18.10;99.90
24410;DHT22;12543;53.364;-1.504;2022-10-26T11:10:28;18.80;99.90
24410;DHT22;12543;53.364;-1.504;2022-10-26T11:12:59;18.90;99.90
24410;DHT22;12543;53.364;-1.504;2022-10-26T11:15:29;18.90;99.90
24410;DHT22;12543;53.364;-1.504;2022-10-26T11:18:02;18.90;99.90
24410;DHT22;12543;53.364;-1.504;2022-10-26T11:20:34;18.90;99.90
24410;DHT22;12543;53.364;-1.504;2022-10-26T11:23:03;18.90;99.90
24410;DHT22;12543;53.364;-1.504;2022-10-26T11:25:33;18.70;99.90
24410;DHT22;12543;53.364;-1.504;2022-10-26T11:28:05;18.80;99.90
24410;DHT22;12543;53.364;-1.504;2022-10-26T11:30:36;18.70;99.90
24410;DHT22;12543;53.364;-1.504;2022-10-26T11:33:10;18.70;99.90
24410;DHT22;12543;53.364;-1.504;2022-10-26T11:35:44;18.60;99.90
24410;DHT22;12543;53.364;-1.504;2022-10-26T11:38:23;18.50;99.90
24410;DHT22;12543;53.364;-1.504;2022-10-26T11:41:18;18.40;99.90
24410;DHT22;12543;53.364;-1.504;2022-10-26T11:43:46;18.30;99.90
24410;DHT22;12543;53.364;-1.504;2022-10-26T11:51:36;17.90;99.90
24410;DHT22;12543;53.364;-1.504;2022-10-26T11:56:52;17.60;99.90
24410;DHT22;12543;53.364;-1.504;2022-10-26T11:59:21;17.40;99.90
24410;DHT22;12543;53.364;-1.504;2022-10-26T12:01:52;17.30;99.90
24410;DHT22;12543;53.364;-1.504;2022-10-26T12:04:21;17.20;99.90
24410;DHT22;12543;53.364;-1.504;2022-10-26T12:06:50;17.10;99.90
24410;DHT22;12543;53.364;-1.504;2022-10-26T12:09:21;17.00;99.90
24410;DHT22;12543;53.364;-1.504;2022-10-26T12:14:23;16.80;99.90
24410;DHT22;12543;53.364;-1.504;2022-10-26T12:21:48;16.80;99.90
24410;DHT22;12543;53.364;-1.504;2022-10-26T12:26:59;16.80;99.90
24410;DHT22;12543;53.364;-1.504;2022-10-26T12:29:30;16.80;99.90
24410;DHT22;12543;53.364;-1.504;2022-10-26T12:31:58;16.70;99.90
24410;DHT22;12543;53.364;-1.504;2022-10-26T12:44:34;16.50;99.90
24410;DHT22;12543;53.364;-1.504;2022-10-26T12:47:02;16.50;99.90
24410;DHT22;12543;53.364;-1.504;2022-10-26T12:52:28;16.40;99.90
24410;DHT22;12543;53.364;-1.504;2022-10-26T12:57:38;16.40;99.90
24410;DHT22;12543;53.364;-1.504;2022-10-26T13:00:13;16.40;99.90
24410;DHT22;12543;53.364;-1.504;2022-10-26T13:05:28;16.40;99.90
24410;DHT22;12543;53.364;-1.504;2022-10-26T13:08:10;16.40;99.90
24410;DHT22;12543;53.364;-1.504;2022-10-26T13:10:39;16.40;99.90
24410;DHT22;12543;53.364;-1.504;2022-10-26T13:13:17;16.30;99.90
24410;DHT22;12543;53.364;-1.504;2022-10-26T13:15:54;16.30;99.90
24410;DHT22;12543;53.364;-1.504;2022-10-26T13:18:21;16.30;99.90
24410;DHT22;12543;53.364;-1.504;2022-10-26T13:20:53;16.20;99.90
24410;DHT22;12543;53.364;-1.504;2022-10-26T13:23:25;16.20;99.90
24410;DHT22;12543;53.364;-1.504;2022-10-26T13:28:31;16.20;99.90
24410;DHT22;12543;53.364;-1.504;2022-10-26T13:30:58;16.20;99.90
24410;DHT22;12543;53.364;-1.504;2022-10-26T13:33:35;16.10;99.90
24410;DHT22;12543;53.364;-1.504;2022-10-26T13:36:05;16.20;99.90
24410;DHT22;12543;53.364;-1.504;2022-10-26T13:38:37;16.20;99.90
24410;DHT22;12543;53.364;-1.504;2022-10-26T13:41:06;16.20;99.90
24410;DHT22;12543;53.364;-1.504;2022-10-26T13:43:33;16.20;99.90
24410;DHT22;12543;53.364;-1.504;2022-10-26T13:46:02;16.20;99.90
24410;DHT22;12543;53.364;-1.504;2022-10-26T13:50:58;16.20;99.90
24410;DHT22;12543;53.364;-1.504;2022-10-26T13:53:42;16.10;99.90
24410;DHT22;12543;53.364;-1.504;2022-10-26T13:58:57;16.10;99.90
24410;DHT22;12543;53.364;-1.504;2022-10-26T14:01:26;16.10;99.90
24410;DHT22;12543;53.364;-1.504;2022-10-26T14:03:54;16.10;99.90
24410;DHT22;12543;53.364;-1.504;2022-10-26T14:06:42;16.10;99.90
24410;DHT22;12543;53.364;-1.504;2022-10-26T14:09:15;16.10;99.90
24410;DHT22;12543;53.364;-1.504;2022-10-26T14:11:45;16.10;99.90
24410;DHT22;12543;53.364;-1.504;2022-10-26T14:16:48;16.10;99.90
24410;DHT22;12543;53.364;-1.504;2022-10-26T14:19:17;16.10;99.90
24410;DHT22;12543;53.364;-1.504;2022-10-26T14:21:45;16.10;99.90
24410;DHT22;12543;53.364;-1.504;2022-10-26T14:27:16;16.10;99.90
24410;DHT22;12543;53.364;-1.504;2022-10-26T14:29:49;16.10;99.90
24410;DHT22;12543;53.364;-1.504;2022-10-26T14:32:37;16.10;99.90
24410;DHT22;12543;53.364;-1.504;2022-10-26T14:35:04;16.00;99.90
24410;DHT22;12543;53.364;-1.504;2022-10-26T14:39:58;16.10;99.90
24410;DHT22;12543;53.364;-1.504;2022-10-26T14:42:29;16.00;99.90
24410;DHT22;12543;53.364;-1.504;2022-10-26T14:44:57;16.00;99.90
24410;DHT22;12543;53.364;-1.504;2022-10-26T14:47:25;16.00;99.90
24410;DHT22;12543;53.364;-1.504;2022-10-26T14:49:52;16.00;99.90
24410;DHT22;12543;53.364;-1.504;2022-10-26T14:52:24;16.00;99.90
24410;DHT22;12543;53.364;-1.504;2022-10-26T14:54:57;16.00;99.90
24410;DHT22;12543;53.364;-1.504;2022-10-26T14:57:31;16.00;99.90
24410;DHT22;12543;53.364;-1.504;2022-10-26T14:59:59;15.90;99.90
24410;DHT22;12543;53.364;-1.504;2022-10-26T15:02:26;15.90;99.90
24410;DHT22;12543;53.364;-1.504;2022-10-26T15:04:57;15.90;99.90
24410;DHT22;12543;53.364;-1.504;2022-10-26T15:07:32;15.80;99.90
24410;DHT22;12543;53.364;-1.504;2022-10-26T15:09:59;15.80;99.90
24410;DHT22;12543;53.364;-1.504;2022-10-26T15:12:36;15.80;99.90
24410;DHT22;12543;53.364;-1.504;2022-10-26T15:17:40;15.70;99.90
24410;DHT22;12543;53.364;-1.504;2022-10-26T15:20:15;15.70;99.90
24410;DHT22;12543;53.364;-1.504;2022-10-26T15:22:47;15.70;99.90
24410;DHT22;12543;53.364;-1.504;2022-10-26T15:25:16;15.70;99.90
24410;DHT22;12543;53.364;-1.504;2022-10-26T15:27:44;15.70;99.90
24410;DHT22;12543;53.364;-1.504;2022-10-26T15:32:42;15.70;99.90
24410;DHT22;12543;53.364;-1.504;2022-10-26T15:37:45;15.60;99.90
24410;DHT22;12543;53.364;-1.504;2022-10-26T15:40:13;15.60;99.90
24410;DHT22;12543;53.364;-1.504;2022-10-26T15:42:40;15.60;99.90
24410;DHT22;12543;53.364;-1.504;2022-10-26T15:45:16;15.60;99.90
24410;DHT22;12543;53.364;-1.504;2022-10-26T15:47:44;15.50;99.90
24410;DHT22;12543;53.364;-1.504;2022-10-26T15:50:13;15.50;99.90
24410;DHT22;12543;53.364;-1.504;2022-10-26T15:52:41;15.50;99.90
24410;DHT22;12543;53.364;-1.504;2022-10-26T15:55:14;15.50;99.90
24410;DHT22;12543;53.364;-1.504;2022-10-26T15:57:40;15.40;99.90
24410;DHT22;12543;53.364;-1.504;2022-10-26T16:00:12;15.40;99.90
24410;DHT22;12543;53.364;-1.504;2022-10-26T16:02:40;15.40;99.90
24410;DHT22;12543;53.364;-1.504;2022-10-26T16:05:07;15.40;99.90
24410;DHT22;12543;53.364;-1.504;2022-10-26T16:07:35;15.30;99.90
24410;DHT22;12543;53.364;-1.504;2022-10-26T16:10:02;15.30;99.90
24410;DHT22;12543;53.364;-1.504;2022-10-26T16:12:29;15.30;99.90
24410;DHT22;12543;53.364;-1.504;2022-10-26T16:14:55;15.30;99.90
24410;DHT22;12543;53.364;-1.504;2022-10-26T16:17:31;15.20;99.90
24410;DHT22;12543;53.364;-1.504;2022-10-26T16:19:59;15.20;99.90
24410;DHT22;12543;53.364;-1.504;2022-10-26T16:22:34;15.20;99.90
24410;DHT22;12543;53.364;-1.504;2022-10-26T16:25:04;15.20;99.90
24410;DHT22;12543;53.364;-1.504;2022-10-26T16:27:31;15.10;99.90
24410;DHT22;12543;53.364;-1.504;2022-10-26T16:29:57;15.10;99.90
24410;DHT22;12543;53.364;-1.504;2022-10-26T16:32:26;15.10;99.90
24410;DHT22;12543;53.364;-1.504;2022-10-26T16:34:52;15.10;99.90
24410;DHT22;12543;53.364;-1.504;2022-10-26T16:37:19;15.10;99.90
24410;DHT22;12543;53.364;-1.504;2022-10-26T16:39:46;15.00;99.90
24410;DHT22;12543;53.364;-1.504;2022-10-26T16:42:13;15.00;99.90
24410;DHT22;12543;53.364;-1.504;2022-10-26T16:44:40;15.00;99.90
24410;DHT22;12543;53.364;-1.504;2022-10-26T16:47:07;15.00;99.90
24410;DHT22;12543;53.364;-1.504;2022-10-26T16:49:34;14.90;99.90
24410;DHT22;12543;53.364;-1.504;2022-10-26T16:52:01;14.90;99.90
24410;DHT22;12543;53.364;-1.504;2022-10-26T16:54:29;14.80;99.90
24410;DHT22;12543;53.364;-1.504;2022-10-26T16:56:56;14.80;99.90
24410;DHT22;12543;53.364;-1.504;2022-10-26T16:59:23;14.80;99.90
24410;DHT22;12543;53.364;-1.504;2022-10-26T17:01:50;14.80;99.90
24410;DHT22;12543;53.364;-1.504;2022-10-26T17:04:17;14.70;99.90
24410;DHT22;12543;53.364;-1.504;2022-10-26T17:06:44;14.70;99.90
24410;DHT22;12543;53.364;-1.504;2022-10-26T17:09:11;14.70;99.90
24410;DHT22;12543;53.364;-1.504;2022-10-26T17:11:37;14.70;99.90
24410;DHT22;12543;53.364;-1.504;2022-10-26T17:14:04;14.70;99.90
24410;DHT22;12543;53.364;-1.504;2022-10-26T17:16:31;14.70;99.90
24410;DHT22;12543;53.364;-1.504;2022-10-26T17:19:00;14.70;99.90
24410;DHT22;12543;53.364;-1.504;2022-10-26T17:21:31;14.60;99.90
24410;DHT22;12543;53.364;-1.504;2022-10-26T17:24:00;14.60;99.90
24410;DHT22;12543;53.364;-1.504;2022-10-26T17:26:27;14.60;99.90
24410;DHT22;12543;53.364;-1.504;2022-10-26T17:28:54;14.60;99.90
24410;DHT22;12543;53.364;-1.504;2022-10-26T17:31:25;14.60;99.90
24410;DHT22;12543;53.364;-1.504;2022-10-26T17:33:52;14.60;99.90
24410;DHT22;12543;53.364;-1.504;2022-10-26T17:36:19;14.60;99.90
24410;DHT22;12543;53.364;-1.504;2022-10-26T17:38:48;14.60;99.90
24410;DHT22;12543;53.364;-1.504;2022-10-26T17:41:16;14.60;99.90
24410;DHT22;12543;53.364;-1.504;2022-10-26T17:43:43;14.50;99.90
24410;DHT22;12543;53.364;-1.504;2022-10-26T17:46:11;14.50;99.90